Terminal Aerodrome Forecast
Issued by NWS Tulsa, OK

Home | Current Version | Previous Version | Text Only | Print | Product List | Glossary On
Versions: 1 2 3 4 5 6 7 8 9 10 11 12 13 14
819
FTUS44 KTSA 290526
TAFTUL
TAF
KTUL 290526Z 2906/3006 02007KT P6SM BKN250
     FM291100 04011KT P6SM OVC050
     FM291400 07013KT P6SM VCTS OVC025CB
      TEMPO 2915/2919 5SM -TSRA OVC015CB
     FM291900 08013KT 5SM -TSRA OVC015CB
     FM300100 10008KT 5SM -SHRA OVC015=

USA.gov is the U.S. government's official web portal to all federal, state and local government web resources and services.